Terminal Aerodrome Forecast
Issued by NWS

Home | Current Version | Previous Version | Text Only | Print | Product List | Glossary Off
Versions: 1 2 3 4 5 6 7 8 9 10 11 12 13

162
FTUS43 KMPX 041734
TAFRNH
TAF
KRNH 041734Z 0418/0518 35015G22KT P6SM FEW050
     FM042300 36009KT P6SM SKC
     FM050200 VRB03KT P6SM SCT150
     FM051200 17004KT P6SM VCSH SCT060 BKN100
     FM051600 21007KT P6SM SCT120=

USA.gov is the U.S. government's official web portal to all federal, state and local government web resources and services.